createdAt,value
2022-10-22T00:00:45.619Z,100835.66
2022-10-22T00:03:12.067Z,100839.16
2022-10-22T00:05:38.555Z,100844.63
2022-10-22T00:08:05.008Z,100848.81
2022-10-22T00:10:31.406Z,100846.09
2022-10-22T00:12:57.772Z,100837.09
2022-10-22T00:15:25.309Z,100830.13
2022-10-22T00:17:51.770Z,100834.56
2022-10-22T00:20:18.233Z,100827.69
2022-10-22T00:22:44.716Z,100835.66
2022-10-22T00:25:11.098Z,100839.09
2022-10-22T00:27:37.688Z,100846.25
2022-10-22T00:30:04.450Z,100855.25
2022-10-22T00:32:30.886Z,100861.56
2022-10-22T00:34:57.291Z,100860.34
2022-10-22T00:37:23.661Z,100859.66
2022-10-22T00:39:50.077Z,100868.91
2022-10-22T00:42:20.993Z,100859.66
2022-10-22T00:45:05.704Z,100857.78
2022-10-22T00:47:42.775Z,100848.75
2022-10-22T00:50:15.755Z,100845.41
2022-10-22T00:52:42.539Z,100844.56
2022-10-22T00:55:09.773Z,100849.09
2022-10-22T00:57:36.564Z,100843.50
2022-10-22T01:00:04.542Z,100837.03
2022-10-22T01:02:31.054Z,100830.72
2022-10-22T01:04:57.453Z,100811.84
2022-10-22T01:07:24.524Z,100821.84
2022-10-22T01:09:50.840Z,100812.19
2022-10-22T01:12:26.245Z,100806.72
2022-10-22T01:15:14.804Z,100806.53
2022-10-22T01:17:47.294Z,100818.69
2022-10-22T01:20:32.833Z,100829.94
2022-10-22T01:23:01.949Z,100832.84
2022-10-22T01:25:35.871Z,100835.56
2022-10-22T01:28:19.792Z,100829.09
2022-10-22T01:30:47.127Z,100828.91
2022-10-22T01:33:15.415Z,100833.50
2022-10-22T01:35:43.732Z,100844.69
2022-10-22T01:38:12.833Z,100848.25
2022-10-22T01:40:39.765Z,100847.28
2022-10-22T01:43:07.652Z,100847.94
2022-10-22T01:45:38.463Z,100842.66
2022-10-22T01:48:22.925Z,100832.75
2022-10-22T01:51:08.363Z,100834.50
2022-10-22T01:53:49.321Z,100832.94
2022-10-22T01:56:15.640Z,100830.59
2022-10-22T01:58:41.998Z,100838.97
2022-10-22T02:01:20.604Z,100845.25
2022-10-22T02:03:59.847Z,100841.31
2022-10-22T02:06:27.692Z,100836.50
2022-10-22T02:08:54.541Z,100836.38
2022-10-22T02:11:21.266Z,100835.34
2022-10-22T02:13:49.536Z,100834.28
2022-10-22T02:16:19.414Z,100831.38
2022-10-22T02:18:47.771Z,100821.31
2022-10-22T02:21:14.476Z,100824.91
2022-10-22T02:23:40.954Z,100830.34
2022-10-22T02:26:11.482Z,100833.09
2022-10-22T02:28:58.548Z,100824.22
2022-10-22T02:31:27.929Z,100847.72
2022-10-22T02:33:56.356Z,100854.88
2022-10-22T02:36:23.768Z,100850.44
2022-10-22T02:38:51.390Z,100842.09
2022-10-22T02:41:18.405Z,100843.13
2022-10-22T02:43:48.794Z,100841.25
2022-10-22T02:46:15.204Z,100835.59
2022-10-22T02:48:41.660Z,100832.88
2022-10-22T02:51:08.012Z,100827.44
2022-10-22T02:53:34.422Z,100823.84
2022-10-22T02:56:00.781Z,100837.66
2022-10-22T02:58:27.175Z,100842.66
2022-10-22T03:00:53.677Z,100830.41
2022-10-22T03:03:20.097Z,100836.03
2022-10-22T03:05:46.424Z,100832.47
2022-10-22T03:08:13.048Z,100844.69
2022-10-22T03:10:39.385Z,100839.25
2022-10-22T03:13:05.717Z,100848.75
2022-10-22T03:15:32.126Z,100850.66
2022-10-22T03:17:58.663Z,100850.00
2022-10-22T03:20:25.010Z,100845.06
2022-10-22T03:22:51.375Z,100847.16
2022-10-22T03:25:19.776Z,100843.75
2022-10-22T03:27:46.655Z,100848.00
2022-10-22T03:30:13.069Z,100854.28
2022-10-22T03:32:39.433Z,100855.78
2022-10-22T03:35:06.321Z,100858.53
2022-10-22T03:37:33.238Z,100851.19
2022-10-22T03:39:59.799Z,100854.41
2022-10-22T03:42:26.265Z,100843.50
2022-10-22T03:44:52.950Z,100850.44
2022-10-22T03:47:19.435Z,100856.75
2022-10-22T03:49:45.799Z,100845.84
2022-10-22T03:52:13.148Z,100854.41
2022-10-22T03:54:39.800Z,100857.78
2022-10-22T03:57:06.733Z,100848.13
2022-10-22T03:59:36.867Z,100859.03
2022-10-22T04:02:03.297Z,100853.91
2022-10-22T04:04:29.777Z,100853.25
2022-10-22T04:06:56.353Z,100850.50
2022-10-22T04:09:22.848Z,100853.06
2022-10-22T04:11:49.251Z,100852.88
2022-10-22T04:14:15.588Z,100860.91
2022-10-22T04:16:42.153Z,100851.69
2022-10-22T04:19:08.774Z,100859.56
2022-10-22T04:21:35.630Z,100871.94
2022-10-22T04:24:02.012Z,100880.13
2022-10-22T04:26:28.394Z,100884.41
2022-10-22T04:28:54.875Z,100883.56
2022-10-22T04:31:23.048Z,100893.63
2022-10-22T04:33:56.827Z,100881.81
2022-10-22T04:36:23.600Z,100892.59
2022-10-22T04:38:57.442Z,100898.88
2022-10-22T04:41:26.230Z,100894.28
2022-10-22T04:43:53.309Z,100894.28
2022-10-22T04:46:20.151Z,100895.94
2022-10-22T04:48:46.903Z,100894.81
2022-10-22T04:51:18.463Z,100891.41
2022-10-22T04:53:45.368Z,100890.97
2022-10-22T04:56:11.748Z,100888.22
2022-10-22T04:58:38.531Z,100894.31
2022-10-22T05:01:12.053Z,100889.72
2022-10-22T05:03:38.578Z,100886.81
2022-10-22T05:06:05.144Z,100891.03
2022-10-22T05:08:31.611Z,100883.56
2022-10-22T05:10:58.037Z,100884.22
2022-10-22T05:13:24.370Z,100886.72
2022-10-22T05:15:50.696Z,100890.97
2022-10-22T05:18:19.058Z,100881.94
2022-10-22T05:20:48.280Z,100880.28
2022-10-22T05:23:14.722Z,100887.41
2022-10-22T05:25:41.096Z,100889.28
2022-10-22T05:28:07.436Z,100881.28
2022-10-22T05:30:33.779Z,100882.31
2022-10-22T05:33:00.138Z,100885.03
2022-10-22T05:35:26.490Z,100898.69
2022-10-22T05:37:52.866Z,100896.78
2022-10-22T05:40:30.640Z,100897.84
2022-10-22T05:42:58.449Z,100900.38
2022-10-22T05:45:24.836Z,100898.69
2022-10-22T05:47:51.243Z,100899.22
2022-10-22T05:50:17.617Z,100901.94
2022-10-22T05:52:44.126Z,100899.59
2022-10-22T05:55:10.625Z,100897.25
2022-10-22T05:57:37.067Z,100897.41
2022-10-22T06:00:03.861Z,100903.72
2022-10-22T06:02:30.304Z,100899.13
2022-10-22T06:04:56.828Z,100901.88
2022-10-22T06:07:23.306Z,100909.00
2022-10-22T06:09:50.301Z,100922.44
2022-10-22T06:12:16.907Z,100919.69
2022-10-22T06:14:43.253Z,100911.53
2022-10-22T06:17:09.616Z,100909.66
2022-10-22T06:19:36.435Z,100907.59
2022-10-22T06:22:03.582Z,100910.97
2022-10-22T06:24:30.165Z,100914.72
2022-10-22T06:26:56.635Z,100921.88
2022-10-22T06:29:23.060Z,100929.91
2022-10-22T06:31:49.614Z,100923.41
2022-10-22T06:34:18.749Z,100928.16
2022-10-22T06:36:45.522Z,100939.06
2022-10-22T06:39:12.936Z,100938.94
2022-10-22T06:41:39.326Z,100941.66
2022-10-22T06:44:05.700Z,100942.00
2022-10-22T06:46:32.248Z,100943.53
2022-10-22T06:49:02.932Z,100948.28
2022-10-22T06:51:29.707Z,100954.09
2022-10-22T06:53:56.573Z,100950.72
2022-10-22T06:56:24.066Z,100955.16
2022-10-22T06:58:51.435Z,100962.47
2022-10-22T07:01:19.251Z,100954.50
2022-10-22T07:03:45.664Z,100962.00
2022-10-22T07:06:13.018Z,100963.88
2022-10-22T07:08:39.853Z,100963.03
2022-10-22T07:11:07.892Z,100964.72
2022-10-22T07:13:34.332Z,100965.56
2022-10-22T07:16:00.665Z,100970.16
2022-10-22T07:18:27.082Z,100972.91
2022-10-22T07:20:53.509Z,100976.66
2022-10-22T07:23:19.915Z,100979.03
2022-10-22T07:25:46.447Z,100980.03
2022-10-22T07:28:13.688Z,100981.56
2022-10-22T07:30:40.505Z,100979.88
2022-10-22T07:33:06.911Z,100976.31
2022-10-22T07:35:34.508Z,100988.22
2022-10-22T07:38:01.358Z,100995.19
2022-10-22T07:40:27.778Z,101002.53
2022-10-22T07:42:54.123Z,101007.97
2022-10-22T07:45:20.463Z,101006.78
2022-10-22T07:47:47.378Z,100999.44
2022-10-22T07:50:14.257Z,101006.78
2022-10-22T07:52:40.858Z,101007.41
2022-10-22T07:55:07.525Z,101003.84
2022-10-22T07:57:33.975Z,100997.22
2022-10-22T08:00:00.806Z,101009.41
2022-10-22T08:02:27.156Z,101008.91
2022-10-22T08:04:53.630Z,101000.50
2022-10-22T08:07:20.096Z,101010.22
2022-10-22T08:09:46.577Z,101015.66
2022-10-22T08:12:13.187Z,101021.78
2022-10-22T08:14:39.683Z,101019.88
2022-10-22T08:17:06.147Z,101024.31
2022-10-22T08:19:33.008Z,101023.47
2022-10-22T08:21:59.772Z,101019.88
2022-10-22T08:24:27.051Z,101015.47
2022-10-22T08:26:55.702Z,101022.63
2022-10-22T08:29:23.224Z,101024.69
2022-10-22T08:31:49.764Z,101029.47
2022-10-22T08:34:16.415Z,101035.75
2022-10-22T08:36:42.800Z,101034.28
2022-10-22T08:39:09.464Z,101044.50
2022-10-22T08:41:42.901Z,101040.09
2022-10-22T08:44:12.254Z,101049.31
2022-10-22T08:46:38.648Z,101042.13
2022-10-22T08:51:40.542Z,101050.31
2022-10-22T08:54:19.394Z,101051.19
2022-10-22T08:56:51.215Z,101048.63
2022-10-22T08:59:20.182Z,101044.03
2022-10-22T09:01:47.828Z,101053.91
2022-10-22T09:04:25.497Z,101061.22
2022-10-22T09:06:53.688Z,101060.56
2022-10-22T09:09:21.639Z,101056.81
2022-10-22T09:11:49.867Z,101047.78
2022-10-22T09:14:17.567Z,101059.53
2022-10-22T09:16:50.094Z,101055.97
2022-10-22T09:19:19.587Z,101048.81
2022-10-22T09:21:55.176Z,101055.31
2022-10-22T09:24:21.916Z,101056.16
2022-10-22T09:26:48.364Z,101051.75
2022-10-22T09:29:20.986Z,101060.06
2022-10-22T09:31:47.695Z,101060.06
2022-10-22T09:34:15.302Z,101058.38
2022-10-22T09:36:41.733Z,101067.41
2022-10-22T09:39:22.776Z,101078.28
2022-10-22T09:41:49.254Z,101081.88
2022-10-22T09:44:15.741Z,101074.72
2022-10-22T09:46:45.499Z,101084.94
2022-10-22T09:49:19.555Z,101080.38
2022-10-22T09:51:49.094Z,101094.00
2022-10-22T09:54:18.113Z,101094.00
2022-10-22T09:56:48.400Z,101085.16
2022-10-22T09:59:19.292Z,101095.22
2022-10-22T10:01:45.829Z,101088.22
2022-10-22T10:04:13.825Z,101094.38
2022-10-22T10:06:41.930Z,101088.06
2022-10-22T10:09:34.796Z,101090.59
2022-10-22T10:12:12.787Z,101098.78
2022-10-22T10:14:46.201Z,101098.78
2022-10-22T10:17:15.643Z,101101.50
2022-10-22T10:19:47.537Z,101098.78
2022-10-22T10:22:16.940Z,101093.69
2022-10-22T10:24:50.447Z,101091.63
2022-10-22T10:27:27.599Z,101096.91
2022-10-22T10:30:02.951Z,101098.59
2022-10-22T10:32:32.508Z,101095.84
2022-10-22T10:34:58.862Z,101098.59
2022-10-22T10:37:28.025Z,101101.16
2022-10-22T10:40:12.751Z,101091.28
2022-10-22T10:42:57.951Z,101098.22
2022-10-22T10:45:24.295Z,101101.16
2022-10-22T10:48:09.436Z,101093.81
2022-10-22T10:50:44.948Z,101100.31
2022-10-22T10:53:26.442Z,101103.03
2022-10-22T10:56:11.585Z,101113.94
2022-10-22T10:58:43.228Z,101108.47
2022-10-22T11:01:09.812Z,101108.28
2022-10-22T11:03:55.196Z,101107.44
2022-10-22T11:06:25.358Z,101104.72
2022-10-22T11:08:58.367Z,101106.59
2022-10-22T11:11:44.278Z,101102.00
2022-10-22T11:14:13.707Z,101099.25
2022-10-22T11:16:46.706Z,101100.09
2022-10-22T11:19:22.715Z,101097.38
2022-10-22T11:22:06.013Z,101102.00
2022-10-22T11:24:47.586Z,101098.41
2022-10-22T11:27:20.199Z,101097.56
2022-10-22T11:29:49.707Z,101103.03
2022-10-22T11:32:19.680Z,101102.19
2022-10-22T11:34:51.534Z,101103.88
2022-10-22T11:37:18.622Z,101108.28
2022-10-22T11:39:47.852Z,101105.56
2022-10-22T11:42:31.872Z,101096.72
2022-10-22T11:45:00.762Z,101104.72
2022-10-22T11:47:34.967Z,101107.44
2022-10-22T11:50:20.112Z,101107.44
2022-10-22T11:52:54.330Z,101095.69
2022-10-22T11:55:33.275Z,101102.00
2022-10-22T11:58:01.168Z,101104.72
2022-10-22T12:00:35.582Z,101105.75
2022-10-22T12:03:03.634Z,101106.41
2022-10-22T12:05:34.876Z,101115.44
2022-10-22T12:08:21.524Z,101104.53
2022-10-22T12:10:51.110Z,101110.16
2022-10-22T12:13:24.782Z,101108.28
2022-10-22T12:15:56.666Z,101107.25
2022-10-22T12:18:33.055Z,101109.13
2022-10-22T12:20:59.458Z,101109.13
2022-10-22T12:23:29.533Z,101110.16
2022-10-22T12:25:56.530Z,101118.34
2022-10-22T12:28:23.123Z,101102.00
2022-10-22T12:30:49.506Z,101100.31
2022-10-22T12:33:23.325Z,101109.13
2022-10-22T12:35:52.998Z,101104.53
2022-10-22T12:38:21.528Z,101107.25
2022-10-22T12:40:50.211Z,101111.72
2022-10-22T12:43:18.041Z,101106.28
2022-10-22T12:45:45.724Z,101109.13
2022-10-22T12:48:20.484Z,101106.41
2022-10-22T12:50:54.597Z,101114.44
2022-10-22T12:53:21.047Z,101115.31
2022-10-22T12:55:49.487Z,101102.19
2022-10-22T12:58:25.068Z,101115.31
2022-10-22T13:00:54.627Z,101117.84
2022-10-22T13:03:44.866Z,101117.19
2022-10-22T13:06:20.547Z,101120.75
2022-10-22T13:08:59.419Z,101120.75
2022-10-22T13:11:33.959Z,101123.47
2022-10-22T13:14:17.989Z,101121.59
2022-10-22T13:17:02.314Z,101125.16
2022-10-22T13:19:38.004Z,101122.44
2022-10-22T13:22:04.779Z,101109.66
2022-10-22T13:24:31.262Z,101112.38
2022-10-22T13:26:57.777Z,101112.56
2022-10-22T13:29:24.808Z,101114.25
2022-10-22T13:31:52.137Z,101124.13
2022-10-22T13:34:24.034Z,101122.44
2022-10-22T13:36:50.702Z,101125.16
2022-10-22T13:39:20.990Z,101127.03
2022-10-22T13:41:47.940Z,101128.75
2022-10-22T13:44:14.323Z,101126.84
2022-10-22T13:46:42.968Z,101132.31
2022-10-22T13:49:20.594Z,101121.91
2022-10-22T13:51:47.265Z,101128.09
2022-10-22T13:54:15.977Z,101128.94
2022-10-22T13:56:42.426Z,101121.59
2022-10-22T13:59:09.507Z,101126.00
2022-10-22T14:01:36.497Z,101127.88
2022-10-22T14:04:04.150Z,101135.22
2022-10-22T14:06:31.462Z,101130.63
2022-10-22T14:09:00.226Z,101137.09
2022-10-22T14:11:31.250Z,101127.03
2022-10-22T14:13:57.617Z,101132.50
2022-10-22T14:16:25.099Z,101133.34
2022-10-22T14:18:51.695Z,101133.53
2022-10-22T14:21:18.486Z,101142.56
2022-10-22T14:23:45.867Z,101137.94
2022-10-22T14:26:38.648Z,101134.19
2022-10-22T14:29:09.410Z,101142.56
2022-10-22T14:31:37.425Z,101136.06
2022-10-22T14:34:03.839Z,101138.09
2022-10-22T14:36:30.238Z,101148.16
2022-10-22T14:38:56.751Z,101145.28
2022-10-22T14:41:24.245Z,101146.78
2022-10-22T14:43:51.616Z,101143.03
2022-10-22T14:46:18.806Z,101140.78
2022-10-22T14:48:45.474Z,101155.94
2022-10-22T14:51:16.336Z,101152.38
2022-10-22T14:53:43.058Z,101160.34
2022-10-22T14:56:11.699Z,101155.75
2022-10-22T14:58:38.278Z,101162.03
2022-10-22T15:01:04.967Z,101157.47
2022-10-22T15:03:31.587Z,101164.97
2022-10-22T15:05:58.112Z,101161.19
2022-10-22T15:08:25.336Z,101162.91
2022-10-22T15:11:02.130Z,101165.44
2022-10-22T15:13:29.241Z,101171.09
2022-10-22T15:15:56.215Z,101174.00
2022-10-22T15:18:23.412Z,101176.72
2022-10-22T15:20:59.982Z,101173.16
2022-10-22T15:23:26.350Z,101176.91
2022-10-22T15:25:52.831Z,101176.91
2022-10-22T15:28:19.364Z,101175.03
2022-10-22T15:30:51.524Z,101175.22
2022-10-22T15:33:17.963Z,101179.63
2022-10-22T15:35:44.289Z,101178.78
2022-10-22T15:38:10.667Z,101178.78
2022-10-22T15:40:36.993Z,101186.28
2022-10-22T15:43:03.385Z,101185.25
2022-10-22T15:45:29.806Z,101190.69
2022-10-22T15:47:56.140Z,101190.91
2022-10-22T15:50:22.515Z,101198.88
2022-10-22T15:52:48.927Z,101198.88
2022-10-22T15:55:15.459Z,101195.50
2022-10-22T15:57:42.022Z,101194.66
2022-10-22T16:00:08.849Z,101198.22
2022-10-22T16:02:35.201Z,101203.88
2022-10-22T16:05:01.697Z,101208.47
2022-10-22T16:07:28.168Z,101204.03
2022-10-22T16:09:58.229Z,101201.16
2022-10-22T16:12:24.660Z,101209.50
2022-10-22T16:14:51.240Z,101204.03
2022-10-22T16:17:17.899Z,101207.81
2022-10-22T16:19:44.243Z,101215.13
2022-10-22T16:22:13.724Z,101208.13
2022-10-22T16:24:42.999Z,101213.44
2022-10-22T16:27:09.933Z,101209.16
2022-10-22T16:29:40.089Z,101219.03
2022-10-22T16:32:06.744Z,101219.88
2022-10-22T16:34:33.160Z,101222.78
2022-10-22T16:36:59.531Z,101220.25
2022-10-22T16:39:25.976Z,101224.88
2022-10-22T16:41:52.419Z,101222.97
2022-10-22T16:44:18.880Z,101220.41
2022-10-22T16:46:45.279Z,101223.97
2022-10-22T16:49:11.786Z,101223.97
2022-10-22T16:51:39.270Z,101231.50
2022-10-22T16:54:08.391Z,101228.78
2022-10-22T16:56:37.891Z,101228.09
2022-10-22T16:59:04.355Z,101236.97
2022-10-22T17:01:31.692Z,101229.81
2022-10-22T17:04:01.394Z,101240.88
2022-10-22T17:06:27.814Z,101236.47
2022-10-22T17:08:54.356Z,101239.00
2022-10-22T17:11:22.025Z,101246.53
2022-10-22T17:13:49.683Z,101245.84
2022-10-22T17:16:17.983Z,101249.78
2022-10-22T17:21:18.035Z,101251.66
2022-10-22T17:23:44.798Z,101263.41
2022-10-22T17:26:22.624Z,101267.19
2022-10-22T17:28:49.562Z,101266.16
2022-10-22T17:31:20.860Z,101273.63
2022-10-22T17:33:48.280Z,101272.63
2022-10-22T17:36:14.824Z,101275.34
2022-10-22T17:38:41.791Z,101278.09
2022-10-22T17:41:11.473Z,101286.41
2022-10-22T17:43:40.973Z,101283.03
2022-10-22T17:46:10.662Z,101280.31
2022-10-22T17:48:37.085Z,101286.78
2022-10-22T17:51:09.992Z,101286.78
2022-10-22T17:53:38.223Z,101282.34
2022-10-22T17:56:07.126Z,101291.56
2022-10-22T17:58:33.523Z,101291.56
2022-10-22T18:01:00.224Z,101287.97
2022-10-22T18:03:27.867Z,101292.59
2022-10-22T18:05:54.870Z,101288.31
2022-10-22T18:08:23.382Z,101293.97
2022-10-22T18:10:49.763Z,101300.25
2022-10-22T18:13:16.132Z,101293.78
2022-10-22T18:15:42.535Z,101301.97
2022-10-22T18:18:09.718Z,101303.66
2022-10-22T18:20:36.105Z,101299.72
2022-10-22T18:23:03.673Z,101307.38
2022-10-22T18:25:31.752Z,101311.78
2022-10-22T18:27:58.190Z,101302.13
2022-10-22T18:30:24.537Z,101310.09
2022-10-22T18:32:51.803Z,101305.88
2022-10-22T18:35:18.242Z,101306.88
2022-10-22T18:37:44.861Z,101314.22
2022-10-22T18:40:14.610Z,101304.34
2022-10-22T18:42:41.522Z,101313.34
2022-10-22T18:45:08.301Z,101315.25
2022-10-22T18:47:34.699Z,101312.69
2022-10-22T18:50:01.134Z,101311.66
2022-10-22T18:52:27.560Z,101319.16
2022-10-22T18:54:54.403Z,101311.81
2022-10-22T18:57:20.829Z,101315.59
2022-10-22T18:59:47.224Z,101317.28
2022-10-22T19:02:17.047Z,101310.31
2022-10-22T19:04:43.836Z,101308.44
2022-10-22T19:07:11.066Z,101314.94
2022-10-22T19:09:37.567Z,101309.47
2022-10-22T19:12:04.059Z,101317.81
2022-10-22T19:14:30.483Z,101312.34
2022-10-22T19:16:56.926Z,101307.28
2022-10-22T19:19:24.356Z,101320.72
2022-10-22T19:21:51.032Z,101315.47
2022-10-22T19:24:18.743Z,101315.47
2022-10-22T19:26:45.572Z,101318.34
2022-10-22T19:29:14.523Z,101318.53
2022-10-22T19:31:41.688Z,101319.38
2022-10-22T19:34:08.155Z,101321.25
2022-10-22T19:36:35.457Z,101321.25
2022-10-22T19:39:02.453Z,101313.22
2022-10-22T19:41:30.214Z,101319.56
2022-10-22T19:43:57.257Z,101318.69
2022-10-22T19:46:25.612Z,101319.72
2022-10-22T19:48:52.816Z,101325.16
2022-10-22T19:51:20.664Z,101329.75
2022-10-22T19:53:47.598Z,101337.09
2022-10-22T19:56:17.024Z,101324.66
2022-10-22T19:58:43.498Z,101334.56
2022-10-22T20:01:11.687Z,101330.97
2022-10-22T20:03:38.655Z,101330.97
2022-10-22T20:06:06.278Z,101334.72
2022-10-22T20:08:35.850Z,101336.59
2022-10-22T20:11:02.723Z,101335.75
2022-10-22T20:13:29.469Z,101348.19
2022-10-22T20:15:56.438Z,101350.06
2022-10-22T20:18:23.392Z,101348.50
2022-10-22T20:20:49.964Z,101352.09
2022-10-22T20:23:16.505Z,101352.28
2022-10-22T20:25:43.937Z,101358.56
2022-10-22T20:28:11.002Z,101366.75
2022-10-22T20:30:46.721Z,101362.47
2022-10-22T20:33:13.575Z,101357.88
2022-10-22T20:35:40.105Z,101364.16
2022-10-22T20:38:07.500Z,101358.91
2022-10-22T20:40:34.136Z,101367.06
2022-10-22T20:43:01.259Z,101376.09
2022-10-22T20:45:28.412Z,101373.56
2022-10-22T20:48:02.174Z,101379.84
2022-10-22T20:50:31.407Z,101385.31
2022-10-22T20:52:58.049Z,101385.50
2022-10-22T20:55:24.451Z,101390.06
2022-10-22T20:57:50.862Z,101378.31
2022-10-22T21:00:17.309Z,101389.41
2022-10-22T21:02:43.696Z,101381.22
2022-10-22T21:05:10.181Z,101394.84
2022-10-22T21:07:36.572Z,101400.28
2022-10-22T21:10:03.833Z,101397.56
2022-10-22T21:12:30.266Z,101401.97
2022-10-22T21:14:56.695Z,101393.81
2022-10-22T21:17:23.137Z,101404.91
2022-10-22T21:19:49.574Z,101416.44
2022-10-22T21:22:15.982Z,101408.47
2022-10-22T21:24:42.515Z,101418.34
2022-10-22T21:27:09.073Z,101413.91
2022-10-22T21:29:35.603Z,101409.50
2022-10-22T21:32:01.970Z,101422.09
2022-10-22T21:34:28.377Z,101427.53
2022-10-22T21:36:54.817Z,101425.84
2022-10-22T21:39:21.280Z,101423.25
2022-10-22T21:41:47.657Z,101426.00
2022-10-22T21:44:14.263Z,101427.72
2022-10-22T21:46:40.812Z,101431.28
2022-10-22T21:49:07.328Z,101432.28
2022-10-22T21:51:35.400Z,101426.69
2022-10-22T21:54:01.862Z,101432.28
2022-10-22T21:56:29.621Z,101429.41
2022-10-22T21:58:56.062Z,101434.88
2022-10-22T22:01:22.761Z,101432.13
2022-10-22T22:03:49.874Z,101436.38
2022-10-22T22:06:21.106Z,101435.72
2022-10-22T22:08:48.848Z,101440.13
2022-10-22T22:11:16.879Z,101434.88
2022-10-22T22:13:43.612Z,101447.28
2022-10-22T22:16:11.610Z,101436.88
2022-10-22T22:18:39.019Z,101446.59
2022-10-22T22:21:06.783Z,101435.69
2022-10-22T22:23:33.412Z,101431.78
2022-10-22T22:26:00.873Z,101436.88
2022-10-22T22:28:29.035Z,101442.19
2022-10-22T22:30:55.890Z,101442.00
2022-10-22T22:33:22.660Z,101447.25
2022-10-22T22:35:49.066Z,101442.00
2022-10-22T22:38:15.507Z,101444.53
2022-10-22T22:40:42.077Z,101446.06
2022-10-22T22:43:08.635Z,101448.28
2022-10-22T22:45:35.604Z,101442.50
2022-10-22T22:48:02.495Z,101440.09
2022-10-22T22:50:28.891Z,101428.88
2022-10-22T22:52:55.367Z,101434.97
2022-10-22T22:55:21.783Z,101436.53
2022-10-22T22:57:48.158Z,101428.34
2022-10-22T23:00:14.693Z,101430.88
2022-10-22T23:02:41.280Z,101426.13
2022-10-22T23:05:08.466Z,101419.81
2022-10-22T23:07:34.834Z,101421.50
2022-10-22T23:10:01.192Z,101422.38
2022-10-22T23:12:28.857Z,101419.63
2022-10-22T23:14:55.236Z,101418.78
2022-10-22T23:17:21.611Z,101418.59
2022-10-22T23:19:48.025Z,101410.78
2022-10-22T23:22:14.412Z,101424.41
2022-10-22T23:24:40.815Z,101415.03
2022-10-22T23:27:07.195Z,101421.19
2022-10-22T23:29:36.339Z,101427.47
2022-10-22T23:32:03.800Z,101422.88
2022-10-22T23:34:30.906Z,101426.44
2022-10-22T23:36:58.404Z,101424.56
2022-10-22T23:39:27.948Z,101423.72
2022-10-22T23:41:54.379Z,101431.91
2022-10-22T23:44:21.714Z,101436.50
2022-10-22T23:46:48.170Z,101436.31
2022-10-22T23:49:14.626Z,101434.63
2022-10-22T23:51:41.022Z,101441.09
2022-10-22T23:54:10.938Z,101432.09
2022-10-22T23:56:37.335Z,101434.97
2022-10-22T23:59:04.309Z,101430.34
